createdAt,value
2018-10-03T00:02:02.847Z,75.85
2018-10-03T00:04:33.182Z,75.90
2018-10-03T00:07:02.448Z,75.49
2018-10-03T00:09:32.914Z,75.39
2018-10-03T00:12:02.484Z,75.26
2018-10-03T00:14:31.893Z,74.62
2018-10-03T00:17:01.557Z,74.15
2018-10-03T00:19:30.851Z,74.21
2018-10-03T00:22:00.231Z,73.47
2018-10-03T00:24:30.707Z,73.53
2018-10-03T00:27:00.798Z,73.20
2018-10-03T00:29:30.922Z,72.86
2018-10-03T00:32:00.850Z,72.56
2018-10-03T00:34:30.017Z,72.29
2018-10-03T00:36:59.621Z,72.59
2018-10-03T00:39:29.699Z,72.67
2018-10-03T00:41:59.046Z,73.03
2018-10-03T00:44:28.468Z,72.80
2018-10-03T00:46:58.353Z,72.70
2018-10-03T00:49:28.039Z,72.61
2018-10-03T00:51:58.644Z,73.17
2018-10-03T00:54:27.996Z,72.46
2018-10-03T00:56:57.605Z,73.23
2018-10-03T00:59:27.558Z,73.05
2018-10-03T01:01:59.824Z,72.76
2018-10-03T01:04:29.193Z,73.02
2018-10-03T01:06:58.219Z,73.35
2018-10-03T01:09:27.275Z,72.96
2018-10-03T01:11:57.304Z,73.34
2018-10-03T01:14:26.917Z,73.14
2018-10-03T01:16:57.743Z,73.38
2018-10-03T01:19:28.175Z,73.26
2018-10-03T01:21:58.362Z,73.92
2018-10-03T01:24:29.117Z,73.38
2018-10-03T01:26:59.415Z,74.35
2018-10-03T01:29:32.460Z,73.55
2018-10-03T01:32:02.097Z,74.34
2018-10-03T01:34:33.189Z,74.25
2018-10-03T01:37:03.227Z,74.44
2018-10-03T01:39:32.631Z,74.66
2018-10-03T01:42:01.903Z,74.29
2018-10-03T01:44:32.581Z,74.10
2018-10-03T01:47:02.051Z,74.46
2018-10-03T01:49:32.141Z,74.47
2018-10-03T01:52:03.167Z,74.78
2018-10-03T01:54:32.630Z,74.86
2018-10-03T01:57:01.745Z,75.13
2018-10-03T01:59:33.952Z,75.10
2018-10-03T02:02:04.159Z,75.34
2018-10-03T02:04:33.746Z,75.50
2018-10-03T02:07:03.557Z,75.33
2018-10-03T02:09:32.830Z,75.15
2018-10-03T02:12:01.955Z,75.27
2018-10-03T02:14:30.999Z,75.56
2018-10-03T02:17:03.537Z,74.92
2018-10-03T02:19:33.447Z,75.10
2018-10-03T02:22:02.690Z,75.17
2018-10-03T02:24:31.893Z,75.20
2018-10-03T02:27:01.777Z,74.94
2018-10-03T02:29:31.113Z,75.22
2018-10-03T02:32:00.588Z,74.75
2018-10-03T02:34:30.363Z,75.27
2018-10-03T02:37:02.594Z,75.81
2018-10-03T02:39:32.404Z,75.45
2018-10-03T02:42:01.865Z,75.34
2018-10-03T02:44:31.771Z,75.44
2018-10-03T02:47:02.024Z,75.46
2018-10-03T02:49:31.403Z,75.62
2018-10-03T02:52:01.223Z,75.45
2018-10-03T02:54:30.896Z,75.03
2018-10-03T02:57:00.162Z,75.67
2018-10-03T02:59:29.584Z,75.19
2018-10-03T03:02:05.031Z,74.91
2018-10-03T03:04:34.617Z,74.62
2018-10-03T03:07:04.408Z,75.08
2018-10-03T03:09:33.835Z,75.16
2018-10-03T03:12:03.234Z,75.12
2018-10-03T03:14:32.891Z,75.29
2018-10-03T03:17:01.902Z,75.49
2018-10-03T03:19:31.500Z,75.41
2018-10-03T03:22:00.756Z,75.21
2018-10-03T03:24:30.551Z,75.60
2018-10-03T03:26:59.747Z,75.83
2018-10-03T03:29:29.559Z,76.06
2018-10-03T03:31:58.809Z,76.20
2018-10-03T03:34:28.258Z,75.83
2018-10-03T03:36:57.822Z,75.83
2018-10-03T03:39:28.834Z,75.99
2018-10-03T03:41:58.879Z,75.99
2018-10-03T03:44:28.591Z,75.71
2018-10-03T03:46:59.552Z,76.02
2018-10-03T03:49:29.370Z,76.29
2018-10-03T03:51:59.694Z,76.52
2018-10-03T03:54:29.643Z,76.20
2018-10-03T03:56:59.526Z,76.40
2018-10-03T04:02:03.968Z,76.48
2018-10-03T04:04:33.067Z,76.62
2018-10-03T04:07:02.640Z,76.43
2018-10-03T04:09:31.882Z,76.26
2018-10-03T04:12:01.101Z,76.37
2018-10-03T04:14:30.620Z,76.41
2018-10-03T04:17:00.151Z,76.50
2018-10-03T04:19:29.295Z,76.29
2018-10-03T04:21:58.665Z,76.00
2018-10-03T04:24:28.603Z,76.40
2018-10-03T04:26:58.102Z,75.82
2018-10-03T04:29:27.416Z,76.25
2018-10-03T04:31:56.888Z,76.64
2018-10-03T04:34:26.500Z,76.42
2018-10-03T04:36:56.862Z,76.40
2018-10-03T04:39:26.607Z,76.21
2018-10-03T04:41:56.237Z,75.95
2018-10-03T04:44:25.492Z,75.98
2018-10-03T04:46:54.764Z,76.07
2018-10-03T04:49:23.832Z,75.84
2018-10-03T04:51:53.100Z,76.25
2018-10-03T04:54:22.580Z,76.25
2018-10-03T04:56:51.925Z,75.86
2018-10-03T04:59:22.155Z,75.86
2018-10-03T05:01:51.923Z,75.83
2018-10-03T05:04:21.371Z,75.91
2018-10-03T05:06:51.776Z,75.72
2018-10-03T05:09:21.385Z,75.68
2018-10-03T05:11:51.223Z,75.91
2018-10-03T05:14:20.597Z,76.12
2018-10-03T05:16:56.188Z,75.64
2018-10-03T05:19:25.574Z,75.30
2018-10-03T05:21:55.001Z,75.57
2018-10-03T05:24:24.605Z,75.46
2018-10-03T05:26:53.928Z,75.64
2018-10-03T05:29:24.248Z,75.25
2018-10-03T05:31:53.731Z,75.42
2018-10-03T05:34:23.866Z,75.00
2018-10-03T05:36:53.786Z,74.95
2018-10-03T05:39:23.589Z,74.46
2018-10-03T05:41:52.865Z,74.53
2018-10-03T05:44:23.114Z,74.50
2018-10-03T05:46:52.625Z,74.12
2018-10-03T05:49:22.854Z,74.42
2018-10-03T05:51:54.182Z,74.47
2018-10-03T05:54:23.798Z,74.41
2018-10-03T05:56:53.399Z,74.31
2018-10-03T05:59:23.481Z,74.55
2018-10-03T06:01:52.947Z,74.16
2018-10-03T06:04:22.564Z,74.43
2018-10-03T06:06:52.142Z,74.28
2018-10-03T06:09:21.475Z,74.29
2018-10-03T06:11:50.981Z,74.12
2018-10-03T06:14:20.813Z,74.30
2018-10-03T06:16:50.005Z,74.41
2018-10-03T06:19:23.640Z,73.90
2018-10-03T06:21:53.252Z,74.46
2018-10-03T06:24:22.616Z,73.88
2018-10-03T06:26:52.463Z,73.97
2018-10-03T06:29:22.959Z,74.39
2018-10-03T06:31:53.058Z,74.30
2018-10-03T06:34:23.377Z,74.12
2018-10-03T06:36:57.447Z,74.22
2018-10-03T06:39:28.213Z,74.44
2018-10-03T06:41:57.536Z,73.91
2018-10-03T06:44:27.163Z,73.78
2018-10-03T06:46:58.627Z,73.04
2018-10-03T06:49:28.814Z,73.10
2018-10-03T06:51:58.318Z,72.67
2018-10-03T06:54:27.935Z,72.87
2018-10-03T06:56:58.074Z,72.75
2018-10-03T06:59:28.405Z,73.01
2018-10-03T07:01:57.996Z,72.82
2018-10-03T07:04:27.395Z,72.50
2018-10-03T07:06:57.592Z,72.08
2018-10-03T07:09:27.141Z,71.62
2018-10-03T07:11:56.526Z,72.12
2018-10-03T07:14:31.130Z,72.28
2018-10-03T07:17:00.674Z,72.16
2018-10-03T07:19:30.123Z,71.89
2018-10-03T07:21:59.667Z,72.37
2018-10-03T07:24:29.218Z,72.15
2018-10-03T07:26:58.713Z,72.18
2018-10-03T07:29:28.825Z,72.28
2018-10-03T07:31:58.326Z,72.54
2018-10-03T07:34:27.625Z,72.45
2018-10-03T07:36:57.944Z,72.31
2018-10-03T07:39:27.482Z,72.17
2018-10-03T07:41:56.770Z,72.57
2018-10-03T07:44:30.991Z,72.06
2018-10-03T07:47:02.250Z,72.25
2018-10-03T07:49:31.721Z,72.28
2018-10-03T07:52:01.323Z,72.20
2018-10-03T07:54:30.718Z,71.34
2018-10-03T07:57:00.533Z,71.37
2018-10-03T07:59:30.049Z,71.47
2018-10-03T08:01:59.542Z,71.43
2018-10-03T08:04:28.953Z,71.78
2018-10-03T08:06:58.446Z,71.38
2018-10-03T08:09:27.925Z,70.87
2018-10-03T08:11:57.332Z,71.30
2018-10-03T08:14:27.410Z,71.37
2018-10-03T08:16:56.927Z,71.16
2018-10-03T08:19:26.388Z,71.39
2018-10-03T08:21:56.248Z,71.09
2018-10-03T08:24:25.721Z,70.92
2018-10-03T08:26:56.610Z,70.96
2018-10-03T08:29:25.860Z,70.95
2018-10-03T08:31:55.490Z,70.59
2018-10-03T08:34:25.209Z,70.53
2018-10-03T08:36:54.600Z,70.82
2018-10-03T08:39:24.764Z,70.75
2018-10-03T08:41:54.590Z,70.23
2018-10-03T08:44:24.010Z,69.50
2018-10-03T08:46:54.197Z,69.83
2018-10-03T08:49:23.836Z,69.63
2018-10-03T08:51:53.175Z,69.37
2018-10-03T08:54:23.335Z,69.11
2018-10-03T08:56:54.660Z,69.51
2018-10-03T08:59:24.524Z,68.61
2018-10-03T09:01:54.792Z,67.91
2018-10-03T09:04:31.239Z,67.04
2018-10-03T09:07:01.087Z,67.03
2018-10-03T09:09:30.519Z,66.86
2018-10-03T09:11:59.888Z,66.23
2018-10-03T09:14:29.851Z,65.08
2018-10-03T09:16:59.318Z,65.30
2018-10-03T09:19:28.499Z,64.15
2018-10-03T09:21:59.023Z,64.51
2018-10-03T09:24:28.781Z,64.43
2018-10-03T09:26:58.358Z,64.34
2018-10-03T09:29:27.750Z,63.89
2018-10-03T09:31:57.969Z,64.06
2018-10-03T09:34:27.325Z,64.15
2018-10-03T09:36:57.436Z,63.61
2018-10-03T09:39:26.944Z,63.25
2018-10-03T09:41:56.296Z,63.16
2018-10-03T09:44:26.847Z,63.62
2018-10-03T09:46:56.278Z,63.82
2018-10-03T09:49:26.554Z,63.24
2018-10-03T09:51:56.787Z,62.18
2018-10-03T09:54:26.333Z,62.61
2018-10-03T09:56:56.897Z,62.12
2018-10-03T09:59:26.695Z,62.07
2018-10-03T10:01:56.981Z,61.70
2018-10-03T10:04:26.476Z,61.83
2018-10-03T10:06:56.565Z,61.15
2018-10-03T10:09:25.928Z,61.30
2018-10-03T10:11:55.682Z,61.17
2018-10-03T10:14:25.352Z,61.10
2018-10-03T10:16:54.826Z,60.72
2018-10-03T10:19:24.609Z,60.22
2018-10-03T10:21:54.304Z,60.25
2018-10-03T10:24:24.967Z,59.87
2018-10-03T10:26:54.615Z,58.51
2018-10-03T10:29:24.194Z,58.75
2018-10-03T10:31:53.558Z,57.23
2018-10-03T10:34:24.045Z,58.05
2018-10-03T10:36:54.175Z,57.67
2018-10-03T10:39:23.236Z,57.50
2018-10-03T10:41:52.830Z,57.31
2018-10-03T10:44:22.188Z,57.41
2018-10-03T10:46:52.472Z,57.36
2018-10-03T10:49:22.804Z,57.04
2018-10-03T10:51:52.393Z,56.80
2018-10-03T10:54:22.896Z,56.38
2018-10-03T10:56:52.714Z,56.56
2018-10-03T10:59:22.181Z,56.47
2018-10-03T11:01:51.890Z,56.72
2018-10-03T11:04:21.585Z,55.98
2018-10-03T11:06:50.922Z,56.03
2018-10-03T11:09:21.306Z,56.50
2018-10-03T11:11:50.728Z,56.61
2018-10-03T11:14:19.965Z,56.07
2018-10-03T11:16:49.714Z,56.08
2018-10-03T11:19:20.461Z,56.45
2018-10-03T11:21:49.760Z,56.60
2018-10-03T11:24:19.209Z,56.57
2018-10-03T11:26:48.795Z,56.34
2018-10-03T11:29:18.268Z,56.09
2018-10-03T11:31:48.867Z,56.19
2018-10-03T11:34:18.691Z,56.04
2018-10-03T11:36:48.106Z,56.62
2018-10-03T11:39:17.416Z,56.50
2018-10-03T11:41:46.929Z,56.38
2018-10-03T11:44:16.263Z,56.88
2018-10-03T11:46:46.014Z,56.47
2018-10-03T11:49:15.461Z,56.77
2018-10-03T11:51:45.661Z,57.03
2018-10-03T11:54:15.138Z,57.20
2018-10-03T11:56:45.858Z,55.71
2018-10-03T11:59:17.495Z,54.81
2018-10-03T12:01:47.266Z,53.98
2018-10-03T12:04:17.134Z,52.96
2018-10-03T12:06:46.696Z,52.07
2018-10-03T12:09:16.343Z,52.01
2018-10-03T12:11:45.764Z,49.73
2018-10-03T12:14:15.722Z,51.13
2018-10-03T12:16:45.117Z,51.08
2018-10-03T12:19:14.632Z,49.32
2018-10-03T12:21:44.096Z,50.67
2018-10-03T12:24:13.635Z,50.12
2018-10-03T12:26:44.191Z,49.87
2018-10-03T12:29:13.744Z,49.85
2018-10-03T12:31:43.420Z,48.43
2018-10-03T12:34:13.079Z,49.21
2018-10-03T12:36:43.184Z,49.00
2018-10-03T12:39:13.055Z,48.19
2018-10-03T12:41:42.580Z,46.34
2018-10-03T12:44:12.475Z,46.82
2018-10-03T12:46:46.269Z,46.79
2018-10-03T12:49:15.764Z,47.59
2018-10-03T12:51:45.316Z,47.59
2018-10-03T12:54:15.814Z,46.96
2018-10-03T12:56:45.213Z,47.54
2018-10-03T12:59:14.571Z,48.67
2018-10-03T13:01:44.199Z,48.39
2018-10-03T13:04:13.569Z,47.43
2018-10-03T13:06:42.960Z,47.28
2018-10-03T13:09:16.132Z,46.89
2018-10-03T13:11:46.715Z,47.59
2018-10-03T13:14:17.974Z,47.36
2018-10-03T13:16:47.445Z,47.34
2018-10-03T13:19:17.409Z,46.49
2018-10-03T13:21:47.379Z,46.49
2018-10-03T13:24:17.039Z,47.03
2018-10-03T13:26:46.419Z,46.96
2018-10-03T13:29:16.071Z,46.58
2018-10-03T13:31:45.339Z,46.71
2018-10-03T13:34:14.477Z,45.54
2018-10-03T13:36:44.143Z,45.16
2018-10-03T13:39:14.715Z,45.35
2018-10-03T13:41:44.557Z,45.17
2018-10-03T13:44:15.124Z,46.15
2018-10-03T13:46:46.026Z,45.60
2018-10-03T13:49:16.369Z,44.74
2018-10-03T13:51:46.197Z,44.73
2018-10-03T13:54:15.933Z,44.74
2018-10-03T13:56:45.379Z,45.40
2018-10-03T13:59:14.751Z,45.55
2018-10-03T14:01:44.443Z,45.59
2018-10-03T14:04:13.760Z,45.59
2018-10-03T14:06:42.914Z,45.90
2018-10-03T14:09:13.575Z,46.16
2018-10-03T14:11:44.004Z,46.40
2018-10-03T14:14:13.225Z,46.52
2018-10-03T14:16:43.686Z,46.42
2018-10-03T14:19:13.375Z,46.59
2018-10-03T14:21:42.953Z,46.36
2018-10-03T14:24:13.203Z,45.93
2018-10-03T14:26:44.883Z,46.75
2018-10-03T14:29:14.575Z,46.83
2018-10-03T14:31:43.920Z,46.81
2018-10-03T14:34:13.647Z,46.54
2018-10-03T14:36:43.547Z,47.05
2018-10-03T14:39:13.479Z,47.50
2018-10-03T14:41:42.799Z,47.51
2018-10-03T14:44:12.942Z,47.42
2018-10-03T14:46:42.857Z,47.82
2018-10-03T14:49:12.239Z,47.87
2018-10-03T14:51:41.746Z,48.15
2018-10-03T14:54:11.252Z,48.19
2018-10-03T14:56:40.910Z,48.77
2018-10-03T14:59:11.543Z,49.10
2018-10-03T15:01:40.993Z,49.26
2018-10-03T15:04:10.815Z,49.23
2018-10-03T15:06:40.529Z,49.54
2018-10-03T15:09:10.456Z,49.80
2018-10-03T15:11:40.126Z,49.80
2018-10-03T15:14:10.090Z,49.91
2018-10-03T15:16:41.998Z,50.15
2018-10-03T15:19:11.584Z,50.24
2018-10-03T15:21:41.078Z,50.15
2018-10-03T15:24:10.470Z,50.34
2018-10-03T15:26:40.076Z,50.16
2018-10-03T15:29:10.079Z,49.91
2018-10-03T15:31:41.086Z,50.02
2018-10-03T15:34:10.626Z,49.66
2018-10-03T15:36:41.776Z,49.82
2018-10-03T15:39:11.430Z,49.49
2018-10-03T15:41:42.057Z,49.98
2018-10-03T15:44:12.589Z,49.80
2018-10-03T15:46:45.257Z,50.12
2018-10-03T15:49:16.532Z,50.11
2018-10-03T15:51:46.377Z,50.10
2018-10-03T15:54:16.676Z,50.39
2018-10-03T15:56:47.361Z,50.42
2018-10-03T15:59:18.291Z,50.24
2018-10-03T16:01:48.838Z,50.38
2018-10-03T16:04:18.301Z,50.35
2018-10-03T16:06:47.402Z,50.51
2018-10-03T16:09:17.978Z,50.37
2018-10-03T16:11:47.604Z,50.46
2018-10-03T16:14:16.838Z,50.53
2018-10-03T16:16:46.390Z,50.41
2018-10-03T16:19:15.778Z,50.51
2018-10-03T16:21:49.012Z,50.91
2018-10-03T16:24:18.564Z,50.91
2018-10-03T16:26:47.790Z,51.38
2018-10-03T16:29:17.498Z,51.70
2018-10-03T16:31:47.417Z,51.83
2018-10-03T16:34:18.815Z,51.88
2018-10-03T16:36:48.883Z,52.02
2018-10-03T16:39:18.248Z,52.27
2018-10-03T16:41:47.599Z,52.29
2018-10-03T16:44:18.056Z,52.38
2018-10-03T16:46:47.467Z,52.52
2018-10-03T16:49:17.124Z,52.22
2018-10-03T16:51:47.623Z,52.40
2018-10-03T16:54:17.954Z,52.55
2018-10-03T16:56:48.849Z,52.45
2018-10-03T16:59:19.463Z,52.22
2018-10-03T17:01:51.599Z,52.31
2018-10-03T17:04:21.749Z,52.25
2018-10-03T17:06:51.304Z,52.34
2018-10-03T17:09:21.034Z,52.46
2018-10-03T17:11:52.458Z,52.21
2018-10-03T17:14:27.918Z,52.43
2018-10-03T17:16:57.684Z,52.33
2018-10-03T17:19:30.322Z,52.34
2018-10-03T17:22:00.120Z,52.54
2018-10-03T17:24:31.692Z,52.56
2018-10-03T17:27:02.154Z,52.75
2018-10-03T17:29:31.600Z,53.08
2018-10-03T17:32:01.476Z,53.10
2018-10-03T17:34:32.206Z,53.92
2018-10-03T17:37:02.594Z,54.46
2018-10-03T17:39:32.559Z,54.60
2018-10-03T17:42:02.784Z,54.29
2018-10-03T17:44:33.728Z,54.27
2018-10-03T17:47:04.342Z,53.98
2018-10-03T17:49:34.077Z,53.71
2018-10-03T17:52:05.461Z,53.53
2018-10-03T17:54:35.279Z,53.92
2018-10-03T17:57:04.956Z,54.55
2018-10-03T17:59:34.611Z,54.94
2018-10-03T18:02:07.418Z,55.22
2018-10-03T18:04:36.885Z,56.07
2018-10-03T18:07:06.505Z,56.60
2018-10-03T18:09:35.879Z,56.95
2018-10-03T18:12:05.721Z,57.16
2018-10-03T18:14:35.868Z,57.65
2018-10-03T18:17:06.728Z,57.69
2018-10-03T18:19:38.361Z,57.95
2018-10-03T18:22:10.700Z,58.02
2018-10-03T18:24:40.930Z,58.03
2018-10-03T18:27:10.553Z,58.52
2018-10-03T18:29:40.950Z,58.70
2018-10-03T18:32:10.411Z,59.06
2018-10-03T18:34:40.159Z,59.66
2018-10-03T18:37:24.420Z,59.81
2018-10-03T18:39:54.733Z,59.59
2018-10-03T18:42:24.258Z,59.56
2018-10-03T18:44:53.974Z,59.35
2018-10-03T18:47:23.537Z,59.50
2018-10-03T18:49:53.556Z,59.62
2018-10-03T18:52:23.589Z,59.54
2018-10-03T18:54:53.174Z,59.37
2018-10-03T18:57:22.812Z,58.96
2018-10-03T18:59:52.709Z,58.74
2018-10-03T19:02:22.778Z,58.65
2018-10-03T19:04:53.577Z,59.21
2018-10-03T19:07:23.376Z,58.98
2018-10-03T19:09:53.133Z,59.27
2018-10-03T19:12:23.218Z,59.31
2018-10-03T19:14:53.032Z,59.39
2018-10-03T19:17:23.007Z,59.55
2018-10-03T19:19:53.389Z,60.24
2018-10-03T19:22:23.279Z,60.28
2018-10-03T19:24:54.403Z,60.36
2018-10-03T19:27:26.288Z,60.46
2018-10-03T19:29:55.777Z,60.66
2018-10-03T19:32:25.306Z,60.47
2018-10-03T19:43:32.944Z,60.23
2018-10-03T19:46:02.808Z,60.19
2018-10-03T19:48:32.831Z,60.16
2018-10-03T19:51:02.928Z,59.93
2018-10-03T19:53:35.067Z,60.14
2018-10-03T19:56:06.975Z,59.96
2018-10-03T19:58:36.789Z,59.82
2018-10-03T20:01:06.428Z,59.93
2018-10-03T20:03:35.960Z,59.72
2018-10-03T20:06:05.271Z,59.22
2018-10-03T20:08:34.364Z,58.77
2018-10-03T20:11:04.760Z,58.59
2018-10-03T20:13:34.712Z,57.41
2018-10-03T20:16:05.046Z,56.79
2018-10-03T20:18:44.739Z,56.42
2018-10-03T20:21:14.632Z,56.42
2018-10-03T20:23:44.776Z,56.37
2018-10-03T20:26:14.648Z,56.33
2018-10-03T20:28:44.811Z,56.38
2018-10-03T20:31:14.343Z,56.39
2018-10-03T20:33:43.714Z,56.68
2018-10-03T20:36:13.368Z,56.69
2018-10-03T20:38:43.888Z,56.78
2018-10-03T20:41:13.024Z,57.14
2018-10-03T20:43:42.608Z,57.22
2018-10-03T20:46:12.191Z,57.35
2018-10-03T20:48:41.835Z,57.65
2018-10-03T20:51:11.370Z,57.65
2018-10-03T20:53:40.583Z,57.79
2018-10-03T20:56:09.776Z,57.93
2018-10-03T20:58:39.230Z,57.76
2018-10-03T21:01:09.268Z,57.49
2018-10-03T21:03:38.464Z,57.28
2018-10-03T21:06:08.309Z,57.56
2018-10-03T21:08:37.744Z,58.04
2018-10-03T21:11:07.632Z,60.03
2018-10-03T21:13:37.458Z,60.95
2018-10-03T21:16:07.657Z,61.09
2018-10-03T21:18:37.628Z,61.20
2018-10-03T21:21:06.992Z,60.79
2018-10-03T21:23:37.357Z,61.27
2018-10-03T21:26:06.766Z,61.50
2018-10-03T21:28:36.002Z,61.50
2018-10-03T21:31:05.495Z,61.94
2018-10-03T21:33:35.587Z,62.43
2018-10-03T21:36:04.741Z,62.95
2018-10-03T21:38:34.701Z,63.58
2018-10-03T21:41:03.936Z,63.25
2018-10-03T21:43:33.498Z,63.58
2018-10-03T21:46:03.008Z,63.79
2018-10-03T21:48:32.732Z,64.29
2018-10-03T21:51:03.430Z,64.38
2018-10-03T21:53:33.339Z,64.18
2018-10-03T21:56:02.890Z,64.07
2018-10-03T21:58:31.981Z,63.89
2018-10-03T22:01:01.772Z,63.70
2018-10-03T22:03:31.814Z,64.03
2018-10-03T22:06:01.199Z,63.99
2018-10-03T22:08:31.296Z,64.51
2018-10-03T22:11:00.603Z,64.67
2018-10-03T22:13:29.795Z,64.62
2018-10-03T22:15:59.519Z,65.06
2018-10-03T22:18:29.368Z,65.17
2018-10-03T22:20:59.000Z,65.15
2018-10-03T22:23:29.042Z,65.04
2018-10-03T22:25:58.618Z,64.99
2018-10-03T22:28:27.736Z,65.04
2018-10-03T22:30:57.315Z,65.01
2018-10-03T22:33:26.770Z,65.23
2018-10-03T22:35:56.130Z,65.07
2018-10-03T22:38:25.910Z,65.85
2018-10-03T22:40:55.334Z,66.46
2018-10-03T22:43:24.701Z,66.54
2018-10-03T22:45:54.346Z,66.50
2018-10-03T22:48:24.174Z,66.25
2018-10-03T22:50:53.487Z,66.37
2018-10-03T22:53:23.427Z,66.92
2018-10-03T22:55:52.800Z,66.74
2018-10-03T22:58:22.305Z,66.65
2018-10-03T23:00:52.137Z,67.15
2018-10-03T23:03:21.612Z,67.26
2018-10-03T23:05:50.811Z,67.44
2018-10-03T23:08:20.896Z,67.91
2018-10-03T23:10:50.556Z,68.52
2018-10-03T23:13:20.065Z,69.03
2018-10-03T23:15:49.684Z,69.62
2018-10-03T23:18:18.899Z,69.90
2018-10-03T23:20:48.390Z,69.70
2018-10-03T23:23:17.758Z,69.58
2018-10-03T23:25:47.208Z,69.63
2018-10-03T23:28:16.817Z,69.70
2018-10-03T23:30:46.600Z,69.49
2018-10-03T23:33:16.457Z,69.46
2018-10-03T23:35:46.126Z,69.19
2018-10-03T23:38:15.689Z,69.42
2018-10-03T23:40:45.446Z,69.39
2018-10-03T23:43:15.268Z,69.32
2018-10-03T23:45:45.105Z,69.15
2018-10-03T23:48:14.622Z,68.70
2018-10-03T23:50:44.296Z,68.33
2018-10-03T23:53:14.151Z,68.68
2018-10-03T23:55:43.921Z,69.75
2018-10-03T23:58:13.286Z,70.28
